sensor_id;sensor_type;location;lat;lon;timestamp;P1;durP1;ratioP1;P2;durP2;ratioP2
5458;SDS011;2752;49.992;8.422;2022-09-06T00:01:30;6.67;;;2.37;;
5458;SDS011;2752;49.992;8.422;2022-09-06T00:03:58;3.60;;;2.10;;
5458;SDS011;2752;49.992;8.422;2022-09-06T00:06:25;4.13;;;2.33;;
5458;SDS011;2752;49.992;8.422;2022-09-06T00:08:53;9.37;;;2.47;;
5458;SDS011;2752;49.992;8.422;2022-09-06T00:11:21;11.53;;;2.80;;
5458;SDS011;2752;49.992;8.422;2022-09-06T00:13:50;4.77;;;2.43;;
5458;SDS011;2752;49.992;8.422;2022-09-06T00:16:20;4.10;;;2.87;;
5458;SDS011;2752;49.992;8.422;2022-09-06T00:18:48;5.70;;;2.60;;
5458;SDS011;2752;49.992;8.422;2022-09-06T00:21:17;12.33;;;2.60;;
5458;SDS011;2752;49.992;8.422;2022-09-06T00:23:45;8.00;;;2.63;;
5458;SDS011;2752;49.992;8.422;2022-09-06T00:26:14;10.77;;;2.60;;
5458;SDS011;2752;49.992;8.422;2022-09-06T00:28:43;7.40;;;2.60;;
5458;SDS011;2752;49.992;8.422;2022-09-06T00:31:14;4.17;;;2.63;;
5458;SDS011;2752;49.992;8.422;2022-09-06T00:33:44;4.33;;;2.73;;
5458;SDS011;2752;49.992;8.422;2022-09-06T00:36:12;3.20;;;2.13;;
5458;SDS011;2752;49.992;8.422;2022-09-06T00:38:41;5.17;;;2.37;;
5458;SDS011;2752;49.992;8.422;2022-09-06T00:41:12;6.67;;;2.43;;
5458;SDS011;2752;49.992;8.422;2022-09-06T00:43:45;5.13;;;2.60;;
5458;SDS011;2752;49.992;8.422;2022-09-06T00:46:16;10.93;;;3.10;;
5458;SDS011;2752;49.992;8.422;2022-09-06T00:48:48;6.93;;;2.80;;
5458;SDS011;2752;49.992;8.422;2022-09-06T00:51:23;5.93;;;2.87;;
5458;SDS011;2752;49.992;8.422;2022-09-06T00:53:56;5.90;;;2.50;;
5458;SDS011;2752;49.992;8.422;2022-09-06T00:56:30;7.67;;;2.33;;
5458;SDS011;2752;49.992;8.422;2022-09-06T00:59:02;12.30;;;3.23;;
5458;SDS011;2752;49.992;8.422;2022-09-06T01:01:34;4.70;;;2.70;;
5458;SDS011;2752;49.992;8.422;2022-09-06T01:04:04;6.77;;;3.00;;
5458;SDS011;2752;49.992;8.422;2022-09-06T01:06:39;4.43;;;2.97;;
5458;SDS011;2752;49.992;8.422;2022-09-06T01:09:20;4.93;;;2.80;;
5458;SDS011;2752;49.992;8.422;2022-09-06T01:12:01;5.83;;;2.63;;
5458;SDS011;2752;49.992;8.422;2022-09-06T01:14:39;6.73;;;2.20;;
5458;SDS011;2752;49.992;8.422;2022-09-06T01:17:26;4.90;;;2.60;;
5458;SDS011;2752;49.992;8.422;2022-09-06T01:20:03;3.50;;;2.37;;
5458;SDS011;2752;49.992;8.422;2022-09-06T01:22:40;3.50;;;2.23;;
5458;SDS011;2752;49.992;8.422;2022-09-06T01:25:25;4.20;;;2.67;;
5458;SDS011;2752;49.992;8.422;2022-09-06T01:28:04;6.60;;;2.23;;
5458;SDS011;2752;49.992;8.422;2022-09-06T01:30:42;3.60;;;2.50;;
5458;SDS011;2752;49.992;8.422;2022-09-06T01:33:14;6.90;;;2.33;;
5458;SDS011;2752;49.992;8.422;2022-09-06T01:35:46;5.87;;;2.80;;
5458;SDS011;2752;49.992;8.422;2022-09-06T01:38:15;4.90;;;2.37;;
5458;SDS011;2752;49.992;8.422;2022-09-06T01:40:44;10.23;;;4.40;;
5458;SDS011;2752;49.992;8.422;2022-09-06T01:43:13;5.13;;;2.60;;
5458;SDS011;2752;49.992;8.422;2022-09-06T01:45:44;5.97;;;3.63;;
5458;SDS011;2752;49.992;8.422;2022-09-06T01:48:15;4.07;;;2.63;;
5458;SDS011;2752;49.992;8.422;2022-09-06T01:56:16;9.83;;;2.70;;
5458;SDS011;2752;49.992;8.422;2022-09-06T01:58:58;4.87;;;2.10;;
5458;SDS011;2752;49.992;8.422;2022-09-06T02:01:28;4.03;;;2.00;;
5458;SDS011;2752;49.992;8.422;2022-09-06T02:03:57;7.73;;;2.03;;
5458;SDS011;2752;49.992;8.422;2022-09-06T02:06:26;8.20;;;2.10;;
5458;SDS011;2752;49.992;8.422;2022-09-06T02:08:56;9.07;;;3.07;;
5458;SDS011;2752;49.992;8.422;2022-09-06T02:11:26;5.47;;;2.30;;
5458;SDS011;2752;49.992;8.422;2022-09-06T02:14:00;2.40;;;2.17;;
5458;SDS011;2752;49.992;8.422;2022-09-06T02:16:29;2.57;;;2.17;;
5458;SDS011;2752;49.992;8.422;2022-09-06T02:18:58;3.70;;;1.60;;
5458;SDS011;2752;49.992;8.422;2022-09-06T02:21:28;5.17;;;1.60;;
5458;SDS011;2752;49.992;8.422;2022-09-06T02:23:58;6.77;;;1.63;;
5458;SDS011;2752;49.992;8.422;2022-09-06T02:26:26;3.73;;;1.77;;
5458;SDS011;2752;49.992;8.422;2022-09-06T02:28:54;2.93;;;1.60;;
5458;SDS011;2752;49.992;8.422;2022-09-06T02:31:24;4.10;;;1.60;;
5458;SDS011;2752;49.992;8.422;2022-09-06T02:33:51;3.67;;;1.47;;
5458;SDS011;2752;49.992;8.422;2022-09-06T02:36:19;3.80;;;1.83;;
5458;SDS011;2752;49.992;8.422;2022-09-06T02:38:46;5.03;;;1.90;;
5458;SDS011;2752;49.992;8.422;2022-09-06T02:41:14;3.60;;;1.80;;
5458;SDS011;2752;49.992;8.422;2022-09-06T02:43:43;6.33;;;1.60;;
5458;SDS011;2752;49.992;8.422;2022-09-06T02:46:10;4.53;;;1.80;;
5458;SDS011;2752;49.992;8.422;2022-09-06T02:48:38;8.63;;;1.27;;
5458;SDS011;2752;49.992;8.422;2022-09-06T02:51:06;4.70;;;1.80;;
5458;SDS011;2752;49.992;8.422;2022-09-06T02:53:34;2.73;;;1.73;;
5458;SDS011;2752;49.992;8.422;2022-09-06T02:56:01;4.60;;;1.87;;
5458;SDS011;2752;49.992;8.422;2022-09-06T02:58:28;4.40;;;2.07;;
5458;SDS011;2752;49.992;8.422;2022-09-06T03:00:55;4.57;;;1.53;;
5458;SDS011;2752;49.992;8.422;2022-09-06T03:03:22;5.37;;;1.87;;
5458;SDS011;2752;49.992;8.422;2022-09-06T03:05:52;2.23;;;1.63;;
5458;SDS011;2752;49.992;8.422;2022-09-06T03:08:21;5.73;;;2.00;;
5458;SDS011;2752;49.992;8.422;2022-09-06T03:10:50;4.60;;;2.00;;
5458;SDS011;2752;49.992;8.422;2022-09-06T03:13:17;3.37;;;2.33;;
5458;SDS011;2752;49.992;8.422;2022-09-06T03:15:48;6.90;;;1.83;;
5458;SDS011;2752;49.992;8.422;2022-09-06T03:18:15;2.17;;;1.70;;
5458;SDS011;2752;49.992;8.422;2022-09-06T03:20:42;3.80;;;1.57;;
5458;SDS011;2752;49.992;8.422;2022-09-06T03:23:10;10.27;;;2.00;;
5458;SDS011;2752;49.992;8.422;2022-09-06T03:25:37;4.60;;;2.40;;
5458;SDS011;2752;49.992;8.422;2022-09-06T03:28:04;2.10;;;1.50;;
5458;SDS011;2752;49.992;8.422;2022-09-06T03:30:31;3.53;;;2.20;;
5458;SDS011;2752;49.992;8.422;2022-09-06T03:32:58;3.80;;;2.03;;
5458;SDS011;2752;49.992;8.422;2022-09-06T03:35:25;2.57;;;1.77;;
5458;SDS011;2752;49.992;8.422;2022-09-06T03:37:52;2.40;;;1.77;;
5458;SDS011;2752;49.992;8.422;2022-09-06T03:40:21;6.07;;;1.90;;
5458;SDS011;2752;49.992;8.422;2022-09-06T03:42:48;4.00;;;2.10;;
5458;SDS011;2752;49.992;8.422;2022-09-06T03:45:15;6.37;;;2.70;;
5458;SDS011;2752;49.992;8.422;2022-09-06T03:47:42;3.10;;;2.10;;
5458;SDS011;2752;49.992;8.422;2022-09-06T03:50:09;9.13;;;2.10;;
5458;SDS011;2752;49.992;8.422;2022-09-06T03:52:36;4.33;;;2.10;;
5458;SDS011;2752;49.992;8.422;2022-09-06T03:55:03;5.00;;;2.40;;
5458;SDS011;2752;49.992;8.422;2022-09-06T03:57:32;2.80;;;1.87;;
5458;SDS011;2752;49.992;8.422;2022-09-06T03:59:59;4.30;;;2.33;;
5458;SDS011;2752;49.992;8.422;2022-09-06T04:02:26;3.40;;;2.40;;
5458;SDS011;2752;49.992;8.422;2022-09-06T04:04:53;4.13;;;2.53;;
5458;SDS011;2752;49.992;8.422;2022-09-06T04:07:20;6.93;;;3.30;;
5458;SDS011;2752;49.992;8.422;2022-09-06T04:09:47;9.60;;;2.40;;
5458;SDS011;2752;49.992;8.422;2022-09-06T04:12:14;4.30;;;2.03;;
5458;SDS011;2752;49.992;8.422;2022-09-06T04:14:42;8.97;;;3.03;;
5458;SDS011;2752;49.992;8.422;2022-09-06T04:17:09;7.13;;;2.00;;
5458;SDS011;2752;49.992;8.422;2022-09-06T04:19:38;3.47;;;2.17;;
5458;SDS011;2752;49.992;8.422;2022-09-06T04:22:05;3.80;;;2.70;;
5458;SDS011;2752;49.992;8.422;2022-09-06T04:24:32;7.80;;;2.63;;
5458;SDS011;2752;49.992;8.422;2022-09-06T04:26:59;3.00;;;2.70;;
5458;SDS011;2752;49.992;8.422;2022-09-06T04:29:26;4.50;;;1.70;;
5458;SDS011;2752;49.992;8.422;2022-09-06T04:31:54;11.60;;;2.33;;
5458;SDS011;2752;49.992;8.422;2022-09-06T04:34:21;2.50;;;2.03;;
5458;SDS011;2752;49.992;8.422;2022-09-06T04:36:48;3.50;;;1.80;;
5458;SDS011;2752;49.992;8.422;2022-09-06T04:39:15;5.07;;;1.93;;
5458;SDS011;2752;49.992;8.422;2022-09-06T04:41:42;4.50;;;2.20;;
5458;SDS011;2752;49.992;8.422;2022-09-06T04:44:09;4.60;;;2.60;;
5458;SDS011;2752;49.992;8.422;2022-09-06T04:46:36;2.53;;;2.20;;
5458;SDS011;2752;49.992;8.422;2022-09-06T04:49:08;2.67;;;2.00;;
5458;SDS011;2752;49.992;8.422;2022-09-06T04:51:35;3.67;;;2.70;;
5458;SDS011;2752;49.992;8.422;2022-09-06T04:54:03;5.40;;;2.60;;
5458;SDS011;2752;49.992;8.422;2022-09-06T04:56:30;5.03;;;2.67;;
5458;SDS011;2752;49.992;8.422;2022-09-06T04:58:57;5.63;;;2.73;;
5458;SDS011;2752;49.992;8.422;2022-09-06T05:01:24;3.30;;;2.53;;
5458;SDS011;2752;49.992;8.422;2022-09-06T05:03:53;5.17;;;2.90;;
5458;SDS011;2752;49.992;8.422;2022-09-06T05:06:22;6.00;;;3.13;;
5458;SDS011;2752;49.992;8.422;2022-09-06T05:08:49;5.40;;;3.03;;
5458;SDS011;2752;49.992;8.422;2022-09-06T05:11:16;8.37;;;3.10;;
5458;SDS011;2752;49.992;8.422;2022-09-06T05:13:43;11.00;;;3.10;;
5458;SDS011;2752;49.992;8.422;2022-09-06T05:16:10;15.27;;;3.40;;
5458;SDS011;2752;49.992;8.422;2022-09-06T05:18:38;14.60;;;3.50;;
5458;SDS011;2752;49.992;8.422;2022-09-06T05:21:05;10.27;;;3.50;;
5458;SDS011;2752;49.992;8.422;2022-09-06T05:23:34;7.07;;;3.70;;
5458;SDS011;2752;49.992;8.422;2022-09-06T05:26:01;3.80;;;2.83;;
5458;SDS011;2752;49.992;8.422;2022-09-06T05:28:28;6.20;;;2.63;;
5458;SDS011;2752;49.992;8.422;2022-09-06T05:31:03;6.87;;;2.70;;
5458;SDS011;2752;49.992;8.422;2022-09-06T05:33:30;8.03;;;3.27;;
5458;SDS011;2752;49.992;8.422;2022-09-06T05:35:57;9.50;;;3.30;;
5458;SDS011;2752;49.992;8.422;2022-09-06T05:38:24;8.03;;;3.33;;
5458;SDS011;2752;49.992;8.422;2022-09-06T05:40:53;12.57;;;3.30;;
5458;SDS011;2752;49.992;8.422;2022-09-06T05:43:19;8.70;;;3.00;;
5458;SDS011;2752;49.992;8.422;2022-09-06T05:45:46;5.07;;;3.10;;
5458;SDS011;2752;49.992;8.422;2022-09-06T05:48:13;15.43;;;3.67;;
5458;SDS011;2752;49.992;8.422;2022-09-06T05:50:39;7.43;;;3.60;;
5458;SDS011;2752;49.992;8.422;2022-09-06T05:53:06;35.15;;;3.80;;
5458;SDS011;2752;49.992;8.422;2022-09-06T05:55:32;11.30;;;3.70;;
5458;SDS011;2752;49.992;8.422;2022-09-06T05:58:00;8.73;;;2.63;;
5458;SDS011;2752;49.992;8.422;2022-09-06T06:00:27;6.67;;;2.50;;
5458;SDS011;2752;49.992;8.422;2022-09-06T06:02:54;6.23;;;2.80;;
5458;SDS011;2752;49.992;8.422;2022-09-06T06:05:20;9.17;;;3.10;;
5458;SDS011;2752;49.992;8.422;2022-09-06T06:07:47;16.33;;;3.20;;
5458;SDS011;2752;49.992;8.422;2022-09-06T06:10:13;10.60;;;3.10;;
5458;SDS011;2752;49.992;8.422;2022-09-06T06:12:40;9.13;;;3.00;;
5458;SDS011;2752;49.992;8.422;2022-09-06T06:15:09;6.33;;;2.67;;
5458;SDS011;2752;49.992;8.422;2022-09-06T06:17:36;6.80;;;2.83;;
5458;SDS011;2752;49.992;8.422;2022-09-06T06:20:04;5.50;;;3.00;;
5458;SDS011;2752;49.992;8.422;2022-09-06T06:22:31;6.10;;;2.53;;
5458;SDS011;2752;49.992;8.422;2022-09-06T06:24:59;7.20;;;3.00;;
5458;SDS011;2752;49.992;8.422;2022-09-06T06:27:27;8.07;;;3.17;;
5458;SDS011;2752;49.992;8.422;2022-09-06T06:29:54;7.37;;;2.87;;
5458;SDS011;2752;49.992;8.422;2022-09-06T06:32:23;9.03;;;3.53;;
5458;SDS011;2752;49.992;8.422;2022-09-06T06:34:50;4.50;;;3.30;;
5458;SDS011;2752;49.992;8.422;2022-09-06T06:37:17;9.50;;;3.43;;
5458;SDS011;2752;49.992;8.422;2022-09-06T06:39:44;8.80;;;3.10;;
5458;SDS011;2752;49.992;8.422;2022-09-06T06:42:11;11.10;;;2.90;;
5458;SDS011;2752;49.992;8.422;2022-09-06T06:44:39;3.07;;;2.50;;
5458;SDS011;2752;49.992;8.422;2022-09-06T06:47:06;4.23;;;2.80;;
5458;SDS011;2752;49.992;8.422;2022-09-06T06:49:35;9.60;;;3.50;;
5458;SDS011;2752;49.992;8.422;2022-09-06T06:52:02;10.57;;;3.43;;
5458;SDS011;2752;49.992;8.422;2022-09-06T06:54:29;12.03;;;3.80;;
5458;SDS011;2752;49.992;8.422;2022-09-06T06:56:56;6.33;;;3.90;;
5458;SDS011;2752;49.992;8.422;2022-09-06T06:59:23;10.87;;;4.93;;
5458;SDS011;2752;49.992;8.422;2022-09-06T07:01:50;11.93;;;3.20;;
5458;SDS011;2752;49.992;8.422;2022-09-06T07:04:17;5.30;;;3.03;;
5458;SDS011;2752;49.992;8.422;2022-09-06T07:06:46;6.40;;;3.80;;
5458;SDS011;2752;49.992;8.422;2022-09-06T07:09:13;8.03;;;3.10;;
5458;SDS011;2752;49.992;8.422;2022-09-06T07:11:40;7.43;;;3.30;;
5458;SDS011;2752;49.992;8.422;2022-09-06T07:14:07;8.30;;;3.13;;
5458;SDS011;2752;49.992;8.422;2022-09-06T07:16:34;9.07;;;3.20;;
5458;SDS011;2752;49.992;8.422;2022-09-06T07:19:01;8.80;;;3.40;;
5458;SDS011;2752;49.992;8.422;2022-09-06T07:21:28;12.67;;;3.13;;
5458;SDS011;2752;49.992;8.422;2022-09-06T07:23:57;5.23;;;3.07;;
5458;SDS011;2752;49.992;8.422;2022-09-06T07:26:27;5.20;;;3.10;;
5458;SDS011;2752;49.992;8.422;2022-09-06T07:28:55;8.80;;;2.80;;
5458;SDS011;2752;49.992;8.422;2022-09-06T07:31:22;8.20;;;3.07;;
5458;SDS011;2752;49.992;8.422;2022-09-06T07:33:49;4.40;;;2.63;;
5458;SDS011;2752;49.992;8.422;2022-09-06T07:36:16;4.70;;;2.50;;
5458;SDS011;2752;49.992;8.422;2022-09-06T07:38:46;6.60;;;2.90;;
5458;SDS011;2752;49.992;8.422;2022-09-06T07:41:15;5.73;;;2.77;;
5458;SDS011;2752;49.992;8.422;2022-09-06T07:43:42;7.03;;;2.40;;
5458;SDS011;2752;49.992;8.422;2022-09-06T07:46:10;4.43;;;2.60;;
5458;SDS011;2752;49.992;8.422;2022-09-06T07:48:39;13.27;;;2.40;;
5458;SDS011;2752;49.992;8.422;2022-09-06T07:51:07;6.80;;;2.60;;
5458;SDS011;2752;49.992;8.422;2022-09-06T07:53:36;4.00;;;2.20;;
5458;SDS011;2752;49.992;8.422;2022-09-06T07:56:05;3.20;;;2.17;;
5458;SDS011;2752;49.992;8.422;2022-09-06T07:58:34;4.20;;;2.60;;
5458;SDS011;2752;49.992;8.422;2022-09-06T08:01:17;4.93;;;2.80;;
5458;SDS011;2752;49.992;8.422;2022-09-06T08:03:45;3.03;;;1.73;;
5458;SDS011;2752;49.992;8.422;2022-09-06T08:06:13;2.60;;;1.87;;
5458;SDS011;2752;49.992;8.422;2022-09-06T08:08:40;9.37;;;2.77;;
5458;SDS011;2752;49.992;8.422;2022-09-06T08:11:07;6.07;;;2.33;;
5458;SDS011;2752;49.992;8.422;2022-09-06T08:13:36;9.33;;;2.57;;
5458;SDS011;2752;49.992;8.422;2022-09-06T08:16:04;4.00;;;2.07;;
5458;SDS011;2752;49.992;8.422;2022-09-06T08:18:31;2.40;;;1.97;;
5458;SDS011;2752;49.992;8.422;2022-09-06T08:21:07;5.17;;;1.83;;
5458;SDS011;2752;49.992;8.422;2022-09-06T08:23:40;3.57;;;2.20;;
5458;SDS011;2752;49.992;8.422;2022-09-06T08:26:11;2.83;;;2.17;;
5458;SDS011;2752;49.992;8.422;2022-09-06T08:28:39;9.40;;;3.20;;
5458;SDS011;2752;49.992;8.422;2022-09-06T08:31:07;4.10;;;2.20;;
5458;SDS011;2752;49.992;8.422;2022-09-06T08:33:36;4.23;;;2.10;;
5458;SDS011;2752;49.992;8.422;2022-09-06T08:36:04;3.67;;;1.80;;
5458;SDS011;2752;49.992;8.422;2022-09-06T08:38:32;4.57;;;2.67;;
5458;SDS011;2752;49.992;8.422;2022-09-06T08:41:06;2.80;;;2.10;;
5458;SDS011;2752;49.992;8.422;2022-09-06T08:43:34;7.60;;;2.83;;
5458;SDS011;2752;49.992;8.422;2022-09-06T08:46:03;6.63;;;2.17;;
5458;SDS011;2752;49.992;8.422;2022-09-06T08:48:31;5.13;;;2.47;;
5458;SDS011;2752;49.992;8.422;2022-09-06T08:51:05;4.93;;;2.40;;
5458;SDS011;2752;49.992;8.422;2022-09-06T08:53:45;7.27;;;2.27;;
5458;SDS011;2752;49.992;8.422;2022-09-06T08:56:12;5.10;;;2.20;;
5458;SDS011;2752;49.992;8.422;2022-09-06T08:58:50;5.27;;;2.40;;
5458;SDS011;2752;49.992;8.422;2022-09-06T09:01:26;4.37;;;2.40;;
5458;SDS011;2752;49.992;8.422;2022-09-06T09:03:57;6.60;;;2.00;;
5458;SDS011;2752;49.992;8.422;2022-09-06T09:06:30;5.07;;;2.63;;
5458;SDS011;2752;49.992;8.422;2022-09-06T09:08:58;2.80;;;1.90;;
5458;SDS011;2752;49.992;8.422;2022-09-06T09:11:29;5.47;;;1.87;;
5458;SDS011;2752;49.992;8.422;2022-09-06T09:13:58;2.80;;;2.07;;
5458;SDS011;2752;49.992;8.422;2022-09-06T09:16:31;9.33;;;2.23;;
5458;SDS011;2752;49.992;8.422;2022-09-06T09:18:59;5.60;;;2.00;;
5458;SDS011;2752;49.992;8.422;2022-09-06T09:21:29;2.80;;;2.00;;
5458;SDS011;2752;49.992;8.422;2022-09-06T09:24:00;4.30;;;2.47;;
5458;SDS011;2752;49.992;8.422;2022-09-06T09:26:30;4.10;;;2.10;;
5458;SDS011;2752;49.992;8.422;2022-09-06T09:29:00;1.83;;;1.50;;
5458;SDS011;2752;49.992;8.422;2022-09-06T09:31:33;10.17;;;2.17;;
5458;SDS011;2752;49.992;8.422;2022-09-06T09:34:01;6.70;;;1.90;;
5458;SDS011;2752;49.992;8.422;2022-09-06T09:36:29;5.70;;;2.00;;
5458;SDS011;2752;49.992;8.422;2022-09-06T09:38:55;4.03;;;1.80;;
5458;SDS011;2752;49.992;8.422;2022-09-06T09:41:24;8.57;;;2.10;;
5458;SDS011;2752;49.992;8.422;2022-09-06T09:43:55;8.30;;;1.93;;
5458;SDS011;2752;49.992;8.422;2022-09-06T09:46:30;2.73;;;2.20;;
5458;SDS011;2752;49.992;8.422;2022-09-06T09:49:03;3.90;;;2.10;;
5458;SDS011;2752;49.992;8.422;2022-09-06T09:51:33;5.90;;;2.70;;
5458;SDS011;2752;49.992;8.422;2022-09-06T09:54:01;5.17;;;2.27;;
5458;SDS011;2752;49.992;8.422;2022-09-06T09:56:34;3.37;;;2.10;;
5458;SDS011;2752;49.992;8.422;2022-09-06T09:59:15;4.93;;;2.30;;
5458;SDS011;2752;49.992;8.422;2022-09-06T10:01:44;10.23;;;2.50;;
5458;SDS011;2752;49.992;8.422;2022-09-06T10:04:17;2.23;;;2.03;;
5458;SDS011;2752;49.992;8.422;2022-09-06T10:06:49;11.50;;;2.50;;
5458;SDS011;2752;49.992;8.422;2022-09-06T10:09:18;5.43;;;2.47;;
5458;SDS011;2752;49.992;8.422;2022-09-06T10:11:48;4.27;;;2.20;;
5458;SDS011;2752;49.992;8.422;2022-09-06T10:14:26;5.70;;;3.00;;
5458;SDS011;2752;49.992;8.422;2022-09-06T10:16:54;4.23;;;2.40;;
5458;SDS011;2752;49.992;8.422;2022-09-06T10:19:36;3.47;;;1.90;;
5458;SDS011;2752;49.992;8.422;2022-09-06T10:22:18;5.80;;;3.00;;
5458;SDS011;2752;49.992;8.422;2022-09-06T10:27:56;3.10;;;2.20;;
5458;SDS011;2752;49.992;8.422;2022-09-06T10:30:33;9.13;;;2.50;;
5458;SDS011;2752;49.992;8.422;2022-09-06T10:33:04;3.50;;;2.13;;
5458;SDS011;2752;49.992;8.422;2022-09-06T10:35:49;7.00;;;2.33;;
5458;SDS011;2752;49.992;8.422;2022-09-06T10:38:22;7.73;;;2.43;;
5458;SDS011;2752;49.992;8.422;2022-09-06T10:40:59;3.67;;;2.63;;
5458;SDS011;2752;49.992;8.422;2022-09-06T10:43:39;3.33;;;2.17;;
5458;SDS011;2752;49.992;8.422;2022-09-06T10:46:14;3.87;;;2.03;;
5458;SDS011;2752;49.992;8.422;2022-09-06T10:48:43;4.10;;;2.20;;
5458;SDS011;2752;49.992;8.422;2022-09-06T10:51:14;5.17;;;2.63;;
5458;SDS011;2752;49.992;8.422;2022-09-06T10:53:48;8.40;;;2.93;;
5458;SDS011;2752;49.992;8.422;2022-09-06T10:56:21;8.80;;;2.80;;
5458;SDS011;2752;49.992;8.422;2022-09-06T10:58:53;4.90;;;2.50;;
5458;SDS011;2752;49.992;8.422;2022-09-06T11:01:29;6.60;;;2.47;;
5458;SDS011;2752;49.992;8.422;2022-09-06T11:03:59;3.43;;;2.07;;
5458;SDS011;2752;49.992;8.422;2022-09-06T11:06:31;3.23;;;2.20;;
5458;SDS011;2752;49.992;8.422;2022-09-06T11:09:02;3.03;;;2.00;;
5458;SDS011;2752;49.992;8.422;2022-09-06T11:11:37;3.70;;;2.20;;
5458;SDS011;2752;49.992;8.422;2022-09-06T11:14:08;2.93;;;2.23;;
5458;SDS011;2752;49.992;8.422;2022-09-06T11:16:39;4.57;;;2.00;;
5458;SDS011;2752;49.992;8.422;2022-09-06T11:19:14;5.00;;;2.20;;
5458;SDS011;2752;49.992;8.422;2022-09-06T11:21:55;6.23;;;2.50;;
5458;SDS011;2752;49.992;8.422;2022-09-06T11:24:40;6.00;;;2.43;;
5458;SDS011;2752;49.992;8.422;2022-09-06T11:27:22;2.83;;;2.10;;
5458;SDS011;2752;49.992;8.422;2022-09-06T11:29:58;4.83;;;2.00;;
5458;SDS011;2752;49.992;8.422;2022-09-06T11:32:31;2.80;;;2.07;;
5458;SDS011;2752;49.992;8.422;2022-09-06T11:35:03;7.47;;;2.17;;
5458;SDS011;2752;49.992;8.422;2022-09-06T11:37:35;4.07;;;2.50;;
5458;SDS011;2752;49.992;8.422;2022-09-06T11:40:11;5.23;;;1.93;;
5458;SDS011;2752;49.992;8.422;2022-09-06T11:45:41;3.43;;;2.20;;
5458;SDS011;2752;49.992;8.422;2022-09-06T11:51:00;5.07;;;2.27;;
5458;SDS011;2752;49.992;8.422;2022-09-06T11:53:32;4.20;;;2.20;;
5458;SDS011;2752;49.992;8.422;2022-09-06T11:56:13;3.50;;;1.93;;
5458;SDS011;2752;49.992;8.422;2022-09-06T11:58:52;3.23;;;2.17;;
5458;SDS011;2752;49.992;8.422;2022-09-06T12:01:34;8.53;;;2.73;;
5458;SDS011;2752;49.992;8.422;2022-09-06T12:04:04;2.80;;;1.90;;
5458;SDS011;2752;49.992;8.422;2022-09-06T12:06:32;4.20;;;2.50;;
5458;SDS011;2752;49.992;8.422;2022-09-06T12:09:03;2.57;;;2.00;;
5458;SDS011;2752;49.992;8.422;2022-09-06T12:11:56;4.90;;;2.50;;
5458;SDS011;2752;49.992;8.422;2022-09-06T12:14:28;3.20;;;2.27;;
5458;SDS011;2752;49.992;8.422;2022-09-06T12:19:53;5.73;;;2.27;;
5458;SDS011;2752;49.992;8.422;2022-09-06T12:28:26;4.40;;;1.77;;
5458;SDS011;2752;49.992;8.422;2022-09-06T12:31:18;4.77;;;2.03;;
5458;SDS011;2752;49.992;8.422;2022-09-06T12:33:54;10.47;;;1.80;;
5458;SDS011;2752;49.992;8.422;2022-09-06T12:36:23;2.87;;;2.00;;
5458;SDS011;2752;49.992;8.422;2022-09-06T12:38:54;6.20;;;2.20;;
5458;SDS011;2752;49.992;8.422;2022-09-06T12:41:24;3.00;;;2.13;;
5458;SDS011;2752;49.992;8.422;2022-09-06T12:43:52;9.00;;;2.00;;
5458;SDS011;2752;49.992;8.422;2022-09-06T12:46:22;2.10;;;1.90;;
5458;SDS011;2752;49.992;8.422;2022-09-06T12:49:01;6.40;;;2.23;;
5458;SDS011;2752;49.992;8.422;2022-09-06T12:51:29;2.60;;;1.80;;
5458;SDS011;2752;49.992;8.422;2022-09-06T12:53:57;3.73;;;1.60;;
5458;SDS011;2752;49.992;8.422;2022-09-06T12:56:27;2.10;;;1.70;;
5458;SDS011;2752;49.992;8.422;2022-09-06T12:59:08;5.00;;;1.93;;
5458;SDS011;2752;49.992;8.422;2022-09-06T13:01:38;3.70;;;1.60;;
5458;SDS011;2752;49.992;8.422;2022-09-06T13:04:07;1.97;;;1.57;;
5458;SDS011;2752;49.992;8.422;2022-09-06T13:06:37;3.33;;;1.67;;
5458;SDS011;2752;49.992;8.422;2022-09-06T13:09:07;2.30;;;1.77;;
5458;SDS011;2752;49.992;8.422;2022-09-06T13:11:37;6.13;;;1.73;;
5458;SDS011;2752;49.992;8.422;2022-09-06T13:14:08;3.87;;;2.10;;
5458;SDS011;2752;49.992;8.422;2022-09-06T13:16:37;4.47;;;1.70;;
5458;SDS011;2752;49.992;8.422;2022-09-06T13:19:11;9.70;;;2.37;;
5458;SDS011;2752;49.992;8.422;2022-09-06T13:21:40;4.33;;;2.30;;
5458;SDS011;2752;49.992;8.422;2022-09-06T13:24:17;8.83;;;2.30;;
5458;SDS011;2752;49.992;8.422;2022-09-06T13:26:47;3.80;;;2.60;;
5458;SDS011;2752;49.992;8.422;2022-09-06T13:29:21;6.20;;;1.50;;
5458;SDS011;2752;49.992;8.422;2022-09-06T13:31:49;7.03;;;2.10;;
5458;SDS011;2752;49.992;8.422;2022-09-06T13:34:20;3.20;;;1.80;;
5458;SDS011;2752;49.992;8.422;2022-09-06T13:36:49;4.23;;;1.93;;
5458;SDS011;2752;49.992;8.422;2022-09-06T13:39:29;4.63;;;2.03;;
5458;SDS011;2752;49.992;8.422;2022-09-06T13:42:03;8.70;;;2.10;;
5458;SDS011;2752;49.992;8.422;2022-09-06T13:44:31;4.03;;;1.60;;
5458;SDS011;2752;49.992;8.422;2022-09-06T13:46:59;7.30;;;1.80;;
5458;SDS011;2752;49.992;8.422;2022-09-06T13:49:26;7.30;;;2.50;;
5458;SDS011;2752;49.992;8.422;2022-09-06T13:51:53;6.73;;;2.27;;
5458;SDS011;2752;49.992;8.422;2022-09-06T13:54:24;2.50;;;2.10;;
5458;SDS011;2752;49.992;8.422;2022-09-06T13:56:50;7.37;;;2.20;;
5458;SDS011;2752;49.992;8.422;2022-09-06T13:59:19;10.73;;;2.37;;
5458;SDS011;2752;49.992;8.422;2022-09-06T14:01:47;5.60;;;2.17;;
5458;SDS011;2752;49.992;8.422;2022-09-06T14:04:19;3.33;;;1.80;;
5458;SDS011;2752;49.992;8.422;2022-09-06T14:06:47;8.97;;;2.60;;
5458;SDS011;2752;49.992;8.422;2022-09-06T14:09:14;7.33;;;2.00;;
5458;SDS011;2752;49.992;8.422;2022-09-06T14:11:42;6.80;;;2.27;;
5458;SDS011;2752;49.992;8.422;2022-09-06T14:14:09;4.27;;;2.20;;
5458;SDS011;2752;49.992;8.422;2022-09-06T14:16:37;15.60;;;2.33;;
5458;SDS011;2752;49.992;8.422;2022-09-06T14:19:04;5.60;;;2.10;;
5458;SDS011;2752;49.992;8.422;2022-09-06T14:21:31;5.70;;;2.20;;
5458;SDS011;2752;49.992;8.422;2022-09-06T14:23:57;4.63;;;1.80;;
5458;SDS011;2752;49.992;8.422;2022-09-06T14:26:26;4.97;;;2.43;;
5458;SDS011;2752;49.992;8.422;2022-09-06T14:28:53;4.17;;;2.37;;
5458;SDS011;2752;49.992;8.422;2022-09-06T14:31:20;9.83;;;2.50;;
5458;SDS011;2752;49.992;8.422;2022-09-06T14:33:51;4.23;;;2.50;;
5458;SDS011;2752;49.992;8.422;2022-09-06T14:36:19;3.80;;;2.10;;
5458;SDS011;2752;49.992;8.422;2022-09-06T14:38:48;1.90;;;1.70;;
5458;SDS011;2752;49.992;8.422;2022-09-06T14:41:15;4.33;;;2.30;;
5458;SDS011;2752;49.992;8.422;2022-09-06T14:43:43;3.20;;;1.80;;
5458;SDS011;2752;49.992;8.422;2022-09-06T14:46:14;4.17;;;2.00;;
5458;SDS011;2752;49.992;8.422;2022-09-06T14:48:42;3.50;;;2.10;;
5458;SDS011;2752;49.992;8.422;2022-09-06T14:51:11;7.63;;;1.97;;
5458;SDS011;2752;49.992;8.422;2022-09-06T14:53:42;6.10;;;2.10;;
5458;SDS011;2752;49.992;8.422;2022-09-06T14:56:09;13.10;;;2.00;;
5458;SDS011;2752;49.992;8.422;2022-09-06T14:58:37;7.10;;;1.60;;
5458;SDS011;2752;49.992;8.422;2022-09-06T15:01:05;5.60;;;2.43;;
5458;SDS011;2752;49.992;8.422;2022-09-06T15:03:37;8.23;;;2.40;;
5458;SDS011;2752;49.992;8.422;2022-09-06T15:06:05;6.73;;;2.50;;
5458;SDS011;2752;49.992;8.422;2022-09-06T15:08:34;3.40;;;2.00;;
5458;SDS011;2752;49.992;8.422;2022-09-06T15:11:02;2.27;;;1.70;;
5458;SDS011;2752;49.992;8.422;2022-09-06T15:13:32;9.67;;;2.50;;
5458;SDS011;2752;49.992;8.422;2022-09-06T15:15:59;6.43;;;2.10;;
5458;SDS011;2752;49.992;8.422;2022-09-06T15:18:26;5.33;;;2.30;;
5458;SDS011;2752;49.992;8.422;2022-09-06T15:20:53;5.03;;;2.13;;
5458;SDS011;2752;49.992;8.422;2022-09-06T15:23:20;2.70;;;1.83;;
5458;SDS011;2752;49.992;8.422;2022-09-06T15:25:49;10.00;;;2.10;;
5458;SDS011;2752;49.992;8.422;2022-09-06T15:28:18;2.47;;;1.87;;
5458;SDS011;2752;49.992;8.422;2022-09-06T15:30:45;2.90;;;2.00;;
5458;SDS011;2752;49.992;8.422;2022-09-06T15:33:12;4.80;;;2.13;;
5458;SDS011;2752;49.992;8.422;2022-09-06T15:35:39;5.50;;;2.03;;
5458;SDS011;2752;49.992;8.422;2022-09-06T15:38:07;11.03;;;1.83;;
5458;SDS011;2752;49.992;8.422;2022-09-06T15:40:34;6.97;;;1.80;;
5458;SDS011;2752;49.992;8.422;2022-09-06T15:43:02;7.53;;;1.90;;
5458;SDS011;2752;49.992;8.422;2022-09-06T15:45:29;3.90;;;1.80;;
5458;SDS011;2752;49.992;8.422;2022-09-06T15:47:56;2.23;;;2.03;;
5458;SDS011;2752;49.992;8.422;2022-09-06T15:50:22;4.30;;;2.43;;
5458;SDS011;2752;49.992;8.422;2022-09-06T15:52:49;4.90;;;2.50;;
5458;SDS011;2752;49.992;8.422;2022-09-06T15:55:16;6.30;;;2.03;;